Time;durP1;ratioP1;P1;durP2;ratioP2;P2;SDS_P1;SDS_P2;PMS_P1;PMS_P2;Temp;Humidity;BMP_temperature;BMP_pressure;BME280_temperature;BME280_humidity;BME280_pressure;Samples;Min_cycle;Max_cycle;Signal;HPM_P1;HPM_P2
2022/05/20 00:01:59;;;;;;;1.70;1.25;;;23.00;57.30;;;;;;6244479;23;20031;-78
2022/05/20 00:04:25;;;;;;;3.22;1.40;;;22.90;57.10;;;;;;6245199;23;20080;-78
2022/05/20 00:06:51;;;;;;;2.22;1.35;;;22.90;57.10;;;;;;6245436;23;20110;-78
2022/05/20 00:09:17;;;;;;;1.30;1.02;;;22.80;57.00;;;;;;6244886;23;20007;-77
2022/05/20 00:11:43;;;;;;;2.45;1.42;;;22.80;57.00;;;;;;6245212;23;20075;-78
2022/05/20 00:14:08;;;;;;;2.50;1.30;;;22.80;57.30;;;;;;6244582;23;20011;-78
2022/05/20 00:16:35;;;;;;;2.42;1.27;;;22.80;57.20;;;;;;6244878;23;20062;-77
2022/05/20 00:19:04;;;;;;;2.67;1.40;;;22.80;57.20;;;;;;6244626;23;20415;-77
2022/05/20 00:21:31;;;;;;;1.58;1.23;;;22.80;57.00;;;;;;6245840;23;20043;-76
2022/05/20 00:23:57;;;;;;;2.45;1.30;;;22.70;57.30;;;;;;6244051;23;20449;-76
2022/05/20 00:26:22;;;;;;;2.17;1.30;;;22.50;58.30;;;;;;6245041;23;19996;-77
2022/05/20 00:28:48;;;;;;;7.18;1.52;;;22.50;57.80;;;;;;6245108;23;19996;-77
2022/05/20 00:31:15;;;;;;;1.67;1.48;;;22.50;57.90;;;;;;6218095;23;20004;-77
2022/05/20 00:33:41;;;;;;;2.22;1.55;;;22.50;57.90;;;;;;6244889;23;20362;-77
2022/05/20 00:36:07;;;;;;;2.53;1.23;;;22.50;57.90;;;;;;6245258;23;20004;-76
2022/05/20 00:38:33;;;;;;;2.13;1.60;;;22.50;58.00;;;;;;6244704;23;20000;-76
2022/05/20 00:40:59;;;;;;;2.75;1.60;;;22.50;57.80;;;;;;6245580;23;20007;-78
2022/05/20 00:43:25;;;;;;;2.70;1.33;;;22.50;57.70;;;;;;6245321;23;20075;-77
2022/05/20 00:45:53;;;;;;;2.42;1.52;;;22.50;57.80;;;;;;6217882;23;20063;-77
2022/05/20 00:48:19;;;;;;;4.28;1.88;;;22.50;57.80;;;;;;6244253;22;20022;-76
2022/05/20 00:50:56;;;;;;;2.42;1.45;;;22.50;57.80;;;;;;6218404;23;20036;-76
2022/05/20 00:53:26;;;;;;;2.97;1.35;;;22.40;57.90;;;;;;6244215;23;20437;-75
2022/05/20 00:55:52;;;;;;;4.32;1.48;;;22.40;58.00;;;;;;6243665;23;20011;-76
2022/05/20 00:58:21;;;;;;;2.13;1.55;;;22.30;58.20;;;;;;6245160;23;20050;-76
2022/05/20 01:00:51;;;;;;;2.75;1.40;;;22.30;58.10;;;;;;6245627;23;20422;-76
2022/05/20 01:03:20;;;;;;;3.75;1.40;;;22.30;58.30;;;;;;6244571;23;20008;-76
2022/05/20 01:05:49;;;;;;;1.95;1.55;;;22.30;58.60;;;;;;6218418;23;20054;-77
2022/05/20 01:08:24;;;;;;;1.95;1.20;;;22.40;58.80;;;;;;6246127;23;19997;-78
2022/05/20 01:10:50;;;;;;;2.38;1.58;;;22.40;58.90;;;;;;6220458;23;20035;-78
2022/05/20 01:13:20;;;;;;;4.43;1.90;;;22.40;59.00;;;;;;6245293;23;20004;-78
2022/05/20 01:15:47;;;;;;;3.85;1.80;;;22.50;58.90;;;;;;6220270;23;20113;-77
2022/05/20 01:18:14;;;;;;;2.58;1.63;;;22.50;58.90;;;;;;6246848;23;20074;-77
2022/05/20 01:20:44;;;;;;;2.10;1.25;;;22.40;59.00;;;;;;6247275;23;20057;-77
2022/05/20 01:23:13;;;;;;;3.20;1.50;;;22.40;59.20;;;;;;6246428;23;20415;-77
2022/05/20 01:25:42;;;;;;;2.75;1.85;;;22.40;59.10;;;;;;6247142;23;20443;-77
2022/05/20 01:28:08;;;;;;;2.28;1.45;;;22.50;59.30;;;;;;6246906;23;20018;-77
2022/05/20 01:30:34;;;;;;;3.78;1.40;;;22.40;59.50;;;;;;6246403;23;20031;-76
2022/05/20 01:33:07;;;;;;;3.05;1.73;;;22.40;59.50;;;;;;6246107;23;20028;-76
2022/05/20 01:35:38;;;;;;;2.35;1.42;;;22.40;59.70;;;;;;6246166;23;20039;-76
2022/05/20 01:38:06;;;;;;;2.25;1.20;;;22.40;60.00;;;;;;6245142;23;20010;-77
2022/05/20 01:40:52;;;;;;;3.50;1.45;;;22.40;60.10;;;;;;6246805;23;20004;-77
2022/05/20 01:43:50;;;;;;;2.70;1.50;;;22.40;60.30;;;;;;6246505;23;20027;-75
2022/05/20 01:46:34;;;;;;;2.30;1.60;;;22.30;60.20;;;;;;6180558;23;20039;-77
2022/05/20 01:49:14;;;;;;;3.05;1.60;;;22.40;60.30;;;;;;6246242;22;20380;-79
2022/05/20 01:52:03;;;;;;;2.75;1.67;;;22.30;60.30;;;;;;6247777;23;20000;-79
2022/05/20 01:54:47;;;;;;;2.08;1.42;;;22.30;60.70;;;;;;6220928;23;20371;-79
2022/05/20 01:57:38;;;;;;;4.18;1.77;;;22.30;60.70;;;;;;6246529;23;20407;-78
2022/05/20 02:00:03;;;;;;;2.60;1.70;;;22.30;61.00;;;;;;6246376;23;20004;-79
2022/05/20 02:02:50;;;;;;;3.33;1.52;;;22.30;60.70;;;;;;6246977;23;20513;-79
2022/05/20 02:05:24;;;;;;;2.45;1.92;;;22.30;60.90;;;;;;6246509;23;20008;-79
2022/05/20 02:07:56;;;;;;;2.20;1.60;;;22.30;61.10;;;;;;6246538;23;19997;-79
2022/05/20 02:10:25;;;;;;;2.60;1.58;;;22.30;61.00;;;;;;6247582;23;20126;-79
2022/05/20 02:12:55;;;;;;;1.95;1.40;;;22.20;61.00;;;;;;6245898;23;20330;-78
2022/05/20 02:15:32;;;;;;;3.88;1.70;;;22.20;61.10;;;;;;6246653;23;20143;-79
2022/05/20 02:18:01;;;;;;;2.95;1.92;;;22.20;61.30;;;;;;6246179;23;20000;-79
2022/05/20 02:20:52;;;;;;;2.45;1.35;;;22.20;61.40;;;;;;6246907;23;20007;-79
2022/05/20 02:23:31;;;;;;;6.28;1.77;;;22.20;61.40;;;;;;6232086;23;20011;-79
2022/05/20 02:26:03;;;;;;;3.13;1.92;;;22.20;61.60;;;;;;6246600;23;20027;-78
2022/05/20 02:28:36;;;;;;;1.90;1.67;;;22.10;61.50;;;;;;6245876;23;20074;-78
2022/05/20 02:31:04;;;;;;;4.20;1.73;;;22.20;61.50;;;;;;6246714;23;20004;-76
2022/05/20 02:33:31;;;;;;;4.45;1.75;;;22.10;61.60;;;;;;6218557;23;20008;-77
2022/05/20 02:36:18;;;;;;;4.53;1.55;;;22.10;61.80;;;;;;6246388;23;20071;-77
2022/05/20 02:38:44;;;;;;;2.28;1.70;;;22.10;62.20;;;;;;6218308;23;20004;-76
2022/05/20 02:41:10;;;;;;;4.20;1.83;;;22.10;62.20;;;;;;6246544;23;20004;-77
2022/05/20 02:43:35;;;;;;;1.65;1.40;;;22.10;62.10;;;;;;6245624;23;20000;-77
2022/05/20 02:46:01;;;;;;;2.20;1.48;;;22.10;62.10;;;;;;6246266;23;20074;-77
2022/05/20 02:48:27;;;;;;;4.43;1.35;;;22.10;62.20;;;;;;6244727;22;20383;-76
2022/05/20 02:50:53;;;;;;;4.45;1.73;;;22.10;62.10;;;;;;6246337;23;20456;-77
2022/05/20 02:53:19;;;;;;;2.63;1.85;;;22.00;62.30;;;;;;6245686;23;20071;-77
2022/05/20 02:55:46;;;;;;;3.85;2.03;;;22.00;62.40;;;;;;6216838;23;20012;-77
2022/05/20 03:04:09;;;;;;;2.75;1.50;;;22.00;62.40;;;;;;6245067;23;20004;-77
2022/05/20 03:06:25;;;;;;;2.50;1.52;;;22.00;62.50;;;;;;6246193;23;20383;-76
2022/05/20 03:08:52;;;;;;;2.55;1.45;;;22.00;62.60;;;;;;6245414;23;20079;-76
2022/05/20 03:11:17;;;;;;;2.33;1.40;;;22.00;62.50;;;;;;6246799;23;20458;-76
2022/05/20 03:13:43;;;;;;;2.65;1.92;;;22.00;62.70;;;;;;6246473;23;19996;-76
2022/05/20 03:16:09;;;;;;;2.50;1.65;;;21.90;62.90;;;;;;6243530;23;20000;-77
2022/05/20 03:18:35;;;;;;;2.30;1.52;;;21.90;62.90;;;;;;6218478;23;20004;-76
2022/05/20 03:21:01;;;;;;;2.47;1.48;;;21.90;62.90;;;;;;6246211;23;20008;-76
2022/05/20 03:23:27;;;;;;;3.10;1.42;;;21.90;62.60;;;;;;6245553;23;20063;-76
2022/05/20 03:25:53;;;;;;;2.45;1.20;;;21.90;62.30;;;;;;6245636;23;20073;-76
2022/05/20 03:28:19;;;;;;;3.55;1.52;;;21.80;62.10;;;;;;6218658;23;20004;-76
2022/05/20 03:30:45;;;;;;;4.10;1.75;;;21.90;62.10;;;;;;6245725;23;20026;-77
2022/05/20 03:33:10;;;;;;;6.00;2.17;;;21.80;62.20;;;;;;6245387;23;20079;-76
2022/05/20 03:35:36;;;;;;;5.88;1.90;;;21.90;62.70;;;;;;6245908;23;20442;-77
2022/05/20 03:38:02;;;;;;;4.03;1.52;;;21.90;62.90;;;;;;6245628;23;20007;-77
2022/05/20 03:40:27;;;;;;;4.43;1.70;;;21.80;64.30;;;;;;6245870;23;20000;-77
2022/05/20 03:42:53;;;;;;;4.40;2.28;;;21.60;63.90;;;;;;6244847;23;20595;-77
2022/05/20 03:45:19;;;;;;;4.45;2.10;;;21.20;64.60;;;;;;6244904;23;20649;-76
2022/05/20 03:47:44;;;;;;;3.83;1.85;;;21.10;65.60;;;;;;6245381;22;20015;-77
2022/05/20 03:50:10;;;;;;;3.40;1.80;;;21.00;65.40;;;;;;6217029;23;20015;-77
2022/05/20 03:52:36;;;;;;;3.38;1.90;;;21.00;65.80;;;;;;6245256;23;20004;-77
2022/05/20 03:55:03;;;;;;;2.95;1.73;;;21.10;65.10;;;;;;6246080;23;20050;-78
2022/05/20 03:57:29;;;;;;;2.15;1.50;;;21.20;65.20;;;;;;6245313;23;20004;-77
2022/05/20 03:59:54;;;;;;;3.83;1.75;;;21.20;64.40;;;;;;6217752;23;20087;-77
2022/05/20 04:02:20;;;;;;;2.28;1.83;;;21.30;64.40;;;;;;6245264;23;20420;-78
2022/05/20 04:04:51;;;;;;;2.22;1.73;;;21.40;64.10;;;;;;6245243;23;20365;-80
2022/05/20 04:07:20;;;;;;;4.07;1.95;;;21.30;64.10;;;;;;6245158;23;20042;-80
2022/05/20 04:09:48;;;;;;;3.05;1.85;;;21.40;64.30;;;;;;6245053;23;20059;-77
2022/05/20 04:12:24;;;;;;;2.25;1.85;;;21.40;64.00;;;;;;6245836;23;20080;-77
2022/05/20 04:14:50;;;;;;;2.97;1.60;;;21.40;64.00;;;;;;6244002;23;20031;-77
2022/05/20 04:17:16;;;;;;;2.85;1.70;;;21.40;63.90;;;;;;6245644;23;20000;-77
2022/05/20 04:19:42;;;;;;;3.28;1.90;;;21.40;63.90;;;;;;6217787;23;20011;-79
2022/05/20 04:22:11;;;;;;;2.47;1.90;;;21.40;64.30;;;;;;6245426;23;20000;-80
2022/05/20 04:24:36;;;;;;;2.53;1.90;;;21.40;64.30;;;;;;6246450;23;20000;-79
2022/05/20 04:27:03;;;;;;;3.67;2.25;;;21.40;64.20;;;;;;6245820;23;20322;-79
2022/05/20 04:29:28;;;;;;;3.28;2.05;;;21.40;64.30;;;;;;6244205;23;20054;-78
2022/05/20 04:31:56;;;;;;;3.58;2.13;;;21.40;64.20;;;;;;6245321;23;20008;-78
2022/05/20 04:34:22;;;;;;;2.97;2.00;;;21.40;64.30;;;;;;6245410;23;20000;-77
2022/05/20 04:36:48;;;;;;;3.67;2.20;;;21.50;64.20;;;;;;6245309;23;20000;-76
2022/05/20 04:39:14;;;;;;;3.35;2.10;;;21.50;64.00;;;;;;6245500;23;20007;-76
2022/05/20 04:47:18;;;;;;;5.47;2.75;;;21.50;64.10;;;;;;6245021;22;20101;-78
2022/05/20 04:49:43;;;;;;;3.08;2.22;;;21.50;64.10;;;;;;6244011;23;20315;-78
2022/05/20 04:52:09;;;;;;;4.60;2.22;;;21.40;64.00;;;;;;6245295;23;20406;-77
2022/05/20 04:54:50;;;;;;;3.55;2.17;;;21.40;63.90;;;;;;6244637;23;20006;-76
2022/05/20 04:57:54;;;;;;;4.63;2.80;;;21.40;64.20;;;;;;6217648;23;20012;-79
2022/05/20 05:00:28;;;;;;;3.63;2.70;;;21.40;64.90;;;;;;6244112;23;20004;-77
2022/05/20 05:02:55;;;;;;;3.17;2.55;;;21.30;64.90;;;;;;6244688;23;20004;-77
2022/05/20 05:05:24;;;;;;;3.67;2.30;;;21.30;65.20;;;;;;6244960;23;20030;-77
2022/05/20 05:07:51;;;;;;;4.18;2.15;;;21.40;65.20;;;;;;6244765;23;20494;-77
2022/05/20 05:10:21;;;;;;;5.00;2.40;;;21.40;65.00;;;;;;6243398;23;20004;-77
2022/05/20 05:12:47;;;;;;;2.85;2.08;;;21.50;65.00;;;;;;6244735;23;20004;-77
2022/05/20 05:15:14;;;;;;;5.03;2.83;;;21.50;64.70;;;;;;6246153;23;20083;-77
2022/05/20 05:20:27;;;;;;;5.13;2.80;;;21.50;64.60;;;;;;6243341;23;20335;-76
2022/05/20 05:22:55;;;;;;;5.57;2.38;;;21.50;64.90;;;;;;6217350;23;20001;-77
2022/05/20 05:25:24;;;;;;;4.22;2.40;;;21.60;64.60;;;;;;6240102;23;20014;-78
2022/05/20 05:27:50;;;;;;;4.03;2.47;;;21.70;64.80;;;;;;6243148;23;20423;-77
2022/05/20 05:30:17;;;;;;;5.03;2.55;;;21.70;64.40;;;;;;6244529;23;20423;-77
2022/05/20 05:32:43;;;;;;;4.53;2.05;;;21.80;64.60;;;;;;6242981;23;20004;-75
2022/05/20 05:35:13;;;;;;;4.03;2.30;;;21.90;65.00;;;;;;6244092;23;20438;-75
2022/05/20 05:37:40;;;;;;;2.63;1.92;;;21.90;64.80;;;;;;6218107;23;20541;-75
2022/05/20 05:40:09;;;;;;;4.90;1.92;;;21.90;64.40;;;;;;6244862;23;20027;-81
2022/05/20 05:42:36;;;;;;;3.78;2.20;;;21.90;63.50;;;;;;6217893;23;20004;-76
2022/05/20 05:45:04;;;;;;;4.60;1.75;;;21.90;64.20;;;;;;6216332;23;20004;-76
2022/05/20 05:47:30;;;;;;;4.28;2.55;;;21.90;64.00;;;;;;6220530;23;20016;-78
2022/05/20 05:49:56;;;;;;;2.10;1.90;;;22.00;64.00;;;;;;6242938;22;20524;-79
2022/05/20 05:52:22;;;;;;;4.80;2.53;;;22.00;64.00;;;;;;6242258;23;20004;-78
2022/05/20 05:54:48;;;;;;;3.20;2.38;;;22.00;63.90;;;;;;6244849;23;20024;-77
2022/05/20 05:57:13;;;;;;;5.38;2.53;;;22.10;64.30;;;;;;6244631;23;20061;-77
2022/05/20 05:59:40;;;;;;;3.35;2.45;;;22.10;63.90;;;;;;6245057;23;20042;-77
2022/05/20 06:02:08;;;;;;;5.03;2.88;;;22.10;64.00;;;;;;6245532;23;20080;-77
2022/05/20 06:04:34;;;;;;;4.28;3.15;;;22.10;63.60;;;;;;6246021;22;20406;-77
2022/05/20 06:07:00;;;;;;;2.80;2.42;;;22.10;64.30;;;;;;6243675;22;20000;-77
2022/05/20 06:09:26;;;;;;;3.90;2.67;;;22.00;63.80;;;;;;6243675;22;20392;-77
2022/05/20 06:11:52;;;;;;;4.15;2.40;;;22.10;63.70;;;;;;6243942;22;20061;-77
2022/05/20 06:14:18;;;;;;;6.35;3.42;;;22.10;63.70;;;;;;6246212;22;20004;-76
2022/05/20 06:16:44;;;;;;;5.50;2.92;;;22.10;64.30;;;;;;6246604;22;20058;-75
2022/05/20 06:19:10;;;;;;;4.28;3.10;;;22.10;63.60;;;;;;6247016;22;20011;-75
2022/05/20 06:21:37;;;;;;;2.78;2.30;;;22.10;63.70;;;;;;6246822;22;20054;-75
2022/05/20 06:24:04;;;;;;;2.42;2.22;;;22.10;64.00;;;;;;6246640;22;20382;-75
2022/05/20 06:26:33;;;;;;;4.07;2.88;;;22.20;63.80;;;;;;6246587;22;20031;-76
2022/05/20 06:28:58;;;;;;;5.35;3.10;;;22.30;64.10;;;;;;6244368;23;20004;-75
2022/05/20 06:31:24;;;;;;;7.85;4.63;;;22.30;65.20;;;;;;6243475;23;20474;-76
2022/05/20 06:33:50;;;;;;;4.50;3.10;;;22.00;65.50;;;;;;6245781;22;19996;-75
2022/05/20 06:41:45;;;;;;;4.78;2.85;;;22.10;65.50;;;;;;6246017;23;20047;-75
2022/05/20 06:44:10;;;;;;;3.25;2.40;;;22.20;65.70;;;;;;6245735;23;19996;-77
2022/05/20 06:46:36;;;;;;;3.88;2.35;;;22.30;65.70;;;;;;6243921;23;20000;-76
2022/05/20 06:49:03;;;;;;;3.83;2.45;;;22.40;65.40;;;;;;6246359;22;20058;-77
2022/05/20 06:51:30;;;;;;;3.33;2.25;;;22.40;65.30;;;;;;6246471;23;19992;-76
2022/05/20 06:53:59;;;;;;;2.58;2.20;;;22.50;65.20;;;;;;6246688;23;19997;-77
2022/05/20 06:56:28;;;;;;;5.28;1.92;;;22.60;64.90;;;;;;6245243;23;20007;-77
2022/05/20 06:58:54;;;;;;;4.97;2.85;;;22.60;64.80;;;;;;6218575;23;20007;-77
2022/05/20 07:01:20;;;;;;;3.95;2.63;;;22.70;65.00;;;;;;6246320;23;19996;-77
2022/05/20 07:03:46;;;;;;;3.45;2.13;;;22.70;65.30;;;;;;6219614;23;20027;-78
2022/05/20 07:06:14;;;;;;;3.13;2.38;;;22.80;65.10;;;;;;6220332;23;20004;-77
2022/05/20 07:08:48;;;;;;;5.32;2.08;;;22.80;65.10;;;;;;6246869;23;20008;-78
2022/05/20 07:11:18;;;;;;;5.18;2.45;;;22.90;65.10;;;;;;6219464;23;20430;-78
2022/05/20 07:13:44;;;;;;;;;;;22.80;64.50;;;;;;6247044;23;20000;-77
2022/05/20 07:16:09;;;;;;;3.30;1.60;;;22.80;65.20;;;;;;6219581;23;19906;-76
2022/05/20 07:18:35;;;;;;;1.60;1.40;;;22.80;64.60;;;;;;6246427;23;20061;-77
2022/05/20 07:21:01;;;;;;;2.97;1.50;;;22.90;64.50;;;;;;6246300;23;20435;-78
2022/05/20 07:23:29;;;;;;;3.90;1.83;;;22.90;64.50;;;;;;6246535;23;20000;-78
2022/05/20 07:25:55;;;;;;;2.50;1.55;;;23.00;64.40;;;;;;6246328;23;20080;-78
2022/05/20 07:28:21;;;;;;;2.35;1.30;;;23.10;64.10;;;;;;6246242;23;20001;-78
2022/05/20 07:30:47;;;;;;;3.10;1.27;;;23.10;64.00;;;;;;6246367;23;20018;-78
2022/05/20 07:33:13;;;;;;;2.42;1.60;;;23.20;64.00;;;;;;6219535;23;19996;-78
2022/05/20 07:35:39;;;;;;;2.25;1.17;;;23.30;63.70;;;;;;6246467;23;20004;-78
2022/05/20 07:38:06;;;;;;;1.80;1.20;;;23.30;63.30;;;;;;6246569;23;20008;-78
2022/05/20 07:40:32;;;;;;;2.10;1.50;;;23.40;62.90;;;;;;6245915;23;20529;-78
2022/05/20 07:42:57;;;;;;;2.25;1.30;;;23.40;61.00;;;;;;6219580;23;20028;-78
2022/05/20 07:45:24;;;;;;;3.85;1.27;;;23.50;61.70;;;;;;6246320;23;20042;-75
2022/05/20 07:47:50;;;;;;;1.90;0.90;;;23.60;61.20;;;;;;6245863;22;20079;-75
2022/05/20 07:50:16;;;;;;;1.63;1.02;;;23.60;60.00;;;;;;6246629;23;20023;-75
2022/05/20 07:55:37;;;;;;;3.13;1.33;;;23.70;59.90;;;;;;6245921;23;20015;-75
2022/05/20 07:58:06;;;;;;;2.95;1.65;;;23.80;60.20;;;;;;6245664;23;20008;-76
2022/05/20 08:00:33;;;;;;;1.65;1.10;;;23.90;60.10;;;;;;6245942;23;20430;-75
2022/05/20 08:03:01;;;;;;;4.20;1.10;;;23.90;59.90;;;;;;6219291;23;20000;-76
2022/05/20 08:05:29;;;;;;;1.95;1.23;;;24.00;60.20;;;;;;6245943;23;20418;-77
2022/05/20 08:08:02;;;;;;;1.38;0.80;;;24.00;59.70;;;;;;6245615;23;20086;-76
2022/05/20 08:10:29;;;;;;;2.70;1.10;;;24.10;59.60;;;;;;6246034;23;20010;-76
2022/05/20 08:12:56;;;;;;;1.63;0.98;;;24.10;59.20;;;;;;6219243;23;20364;-76
2022/05/20 08:15:24;;;;;;;1.05;0.90;;;24.20;59.20;;;;;;6246445;23;20085;-77
2022/05/20 08:17:50;;;;;;;2.22;1.00;;;24.20;58.70;;;;;;6245984;23;20007;-76
2022/05/20 08:20:23;;;;;;;1.95;1.10;;;24.30;58.50;;;;;;6245945;23;20004;-76
2022/05/20 08:22:49;;;;;;;3.92;1.80;;;24.40;57.90;;;;;;6245627;23;20004;-77
2022/05/20 08:25:16;;;;;;;1.38;0.82;;;24.40;54.00;;;;;;6245632;23;20055;-76
2022/05/20 08:27:42;;;;;;;1.92;1.10;;;24.40;56.10;;;;;;6245768;23;20028;-77
2022/05/20 08:30:14;;;;;;;2.38;1.13;;;24.40;55.90;;;;;;6246411;23;20004;-77
2022/05/20 08:32:40;;;;;;;2.75;1.20;;;24.50;55.10;;;;;;6246201;23;20000;-77
2022/05/20 08:35:06;;;;;;;4.93;0.95;;;24.50;55.80;;;;;;6246395;23;20081;-77
2022/05/20 08:37:33;;;;;;;1.88;0.90;;;24.60;55.70;;;;;;6245873;23;20438;-77
2022/05/20 08:40:00;;;;;;;2.13;1.00;;;24.70;55.60;;;;;;6242598;23;20012;-76
2022/05/20 08:42:29;;;;;;;1.90;1.20;;;24.80;54.10;;;;;;6241766;23;19996;-76
2022/05/20 08:44:55;;;;;;;5.60;1.33;;;24.80;53.50;;;;;;6242799;23;20004;-76
2022/05/20 08:47:26;;;;;;;1.90;1.02;;;24.90;53.80;;;;;;6243280;22;20198;-76
2022/05/20 08:49:58;;;;;;;2.10;1.05;;;25.00;51.80;;;;;;6244033;23;20155;-76
2022/05/20 08:52:25;;;;;;;1.83;1.00;;;25.00;52.10;;;;;;6244997;23;20029;-76
2022/05/20 08:54:50;;;;;;;1.60;1.00;;;25.10;51.50;;;;;;6245548;23;20371;-76
2022/05/20 08:57:25;;;;;;;0.63;0.57;;;25.10;49.80;;;;;;6217918;23;20011;-77
2022/05/20 08:59:51;;;;;;;2.22;1.00;;;25.20;47.90;;;;;;6245343;23;20334;-76
2022/05/20 09:02:17;;;;;;;2.10;0.80;;;25.30;48.50;;;;;;6245629;23;20004;-76
2022/05/20 09:04:43;;;;;;;2.28;1.40;;;25.30;49.60;;;;;;6245845;23;20049;-77
2022/05/20 09:07:15;;;;;;;1.30;1.00;;;25.30;49.50;;;;;;6219041;23;20004;-77
2022/05/20 09:09:40;;;;;;;1.80;0.98;;;25.40;51.00;;;;;;6218583;23;20008;-77
2022/05/20 09:12:07;;;;;;;5.03;1.40;;;25.50;53.30;;;;;;6245028;23;20027;-76
2022/05/20 09:17:21;;;;;;;2.38;1.00;;;25.60;54.70;;;;;;6245360;23;20450;-76
2022/05/20 09:20:07;;;;;;;3.25;1.70;;;25.60;56.10;;;;;;6244403;23;20066;-76
2022/05/20 09:22:37;;;;;;;2.63;1.85;;;25.80;57.40;;;;;;6243692;23;20035;-76
2022/05/20 09:25:09;;;;;;;2.65;1.15;;;25.80;56.90;;;;;;6244711;23;20023;-76
2022/05/20 09:27:36;;;;;;;3.40;0.90;;;25.90;56.80;;;;;;6244631;23;19996;-76
2022/05/20 09:30:01;;;;;;;1.17;1.00;;;26.00;56.60;;;;;;6219535;23;20012;-76
2022/05/20 09:32:29;;;;;;;1.63;1.00;;;26.10;56.40;;;;;;6246824;23;20411;-77
2022/05/20 09:35:15;;;;;;;5.68;1.27;;;26.10;55.70;;;;;;6247545;23;20136;-76
2022/05/20 09:37:41;;;;;;;4.03;1.30;;;26.20;55.40;;;;;;6247429;23;20000;-74
2022/05/20 09:40:34;;;;;;;1.20;0.90;;;26.20;54.00;;;;;;6247053;23;20133;-75
2022/05/20 09:43:03;;;;;;;3.65;1.30;;;26.20;54.00;;;;;;6246270;23;20022;-76
2022/05/20 09:45:43;;;;;;;4.60;1.40;;;26.20;54.80;;;;;;6246486;23;20075;-75
2022/05/20 09:48:10;;;;;;;0.95;0.82;;;26.30;55.20;;;;;;6246248;22;20008;-75
2022/05/20 09:50:40;;;;;;;4.72;1.20;;;26.40;54.40;;;;;;6220180;23;20377;-77
2022/05/20 09:53:36;;;;;;;1.65;0.77;;;26.50;54.40;;;;;;6247410;23;20062;-77
2022/05/20 09:56:33;;;;;;;1.27;1.10;;;26.60;53.10;;;;;;6247095;23;20426;-77
2022/05/20 09:59:10;;;;;;;3.22;1.23;;;26.70;52.00;;;;;;6222702;23;20419;-77
2022/05/20 10:01:38;;;;;;;1.98;0.90;;;26.70;52.20;;;;;;6246940;23;20000;-77
2022/05/20 10:04:10;;;;;;;2.00;1.00;;;26.80;51.80;;;;;;6246506;23;19996;-77
2022/05/20 10:06:46;;;;;;;3.03;1.00;;;26.90;50.90;;;;;;6246777;23;20004;-77
2022/05/20 10:09:32;;;;;;;0.93;0.85;;;26.90;49.60;;;;;;6246451;23;20011;-77
2022/05/20 10:12:08;;;;;;;0.95;0.85;;;27.00;47.30;;;;;;6246973;23;20030;-78
2022/05/20 10:15:02;;;;;;;0.98;0.80;;;27.10;47.30;;;;;;6247151;23;20046;-77
2022/05/20 10:17:43;;;;;;;2.65;1.00;;;27.10;46.50;;;;;;6246504;23;20008;-77
2022/05/20 10:20:36;;;;;;;1.20;0.80;;;27.30;47.20;;;;;;6246245;23;20127;-77
2022/05/20 10:23:02;;;;;;;2.33;1.20;;;27.40;47.00;;;;;;6219350;23;20011;-76
2022/05/20 10:25:41;;;;;;;1.85;0.75;;;27.40;47.70;;;;;;6246709;23;19996;-75
2022/05/20 10:34:16;;;;;;;1.45;0.82;;;27.60;44.10;;;;;;6246287;23;20023;-75
2022/05/20 10:37:20;;;;;;;1.10;0.80;;;27.80;44.00;;;;;;6218117;23;20012;-75
2022/05/20 10:40:23;;;;;;;1.45;0.90;;;27.80;43.60;;;;;;6220299;23;20008;-74
2022/05/20 10:42:58;;;;;;;2.63;0.90;;;28.00;43.90;;;;;;6245463;23;20535;-76
2022/05/20 10:48:45;;;;;;;2.20;0.93;;;28.10;43.00;;;;;;6245590;22;20397;-75
2022/05/20 10:51:29;;;;;;;1.77;0.77;;;28.20;37.60;;;;;;6246057;23;20004;-75
2022/05/20 10:54:15;;;;;;;2.80;1.10;;;28.20;39.80;;;;;;6245127;23;20007;-75
2022/05/20 10:57:03;;;;;;;1.08;0.93;;;28.20;37.60;;;;;;6218234;23;20012;-76
2022/05/20 11:00:01;;;;;;;2.95;2.08;;;28.30;39.80;;;;;;6246043;23;20439;-75
2022/05/20 11:03:03;;;;;;;2.45;1.77;;;28.50;41.10;;;;;;6246011;23;20066;-75
2022/05/20 11:05:38;;;;;;;17.20;6.60;;;28.60;41.20;;;;;;6246453;23;20007;-75
2022/05/20 11:08:41;;;;;;;6.97;3.00;;;28.60;41.20;;;;;;6245807;23;19996;-75
2022/05/20 11:11:33;;;;;;;4.00;1.60;;;28.80;42.20;;;;;;6245667;23;20071;-76
2022/05/20 11:14:23;;;;;;;7.95;1.60;;;29.00;42.00;;;;;;6246276;23;20004;-75
2022/05/20 11:17:08;;;;;;;3.72;1.40;;;29.10;43.80;;;;;;6244840;23;20008;-75
2022/05/20 11:19:34;;;;;;;4.07;1.20;;;29.20;43.10;;;;;;6245155;23;20280;-76
2022/05/20 11:22:43;;;;;;;6.60;2.00;;;29.40;43.40;;;;;;6245389;23;20001;-76
2022/05/20 11:25:32;;;;;;;6.40;1.42;;;29.50;43.90;;;;;;6245822;23;20007;-78
2022/05/20 11:28:10;;;;;;;3.28;1.45;;;29.70;43.90;;;;;;6245676;23;20004;-75
2022/05/20 11:30:51;;;;;;;2.83;1.20;;;30.10;42.90;;;;;;6246064;23;20004;-76
2022/05/20 11:33:29;;;;;;;1.83;1.23;;;30.50;43.60;;;;;;6245204;23;20816;-76
2022/05/20 11:36:15;;;;;;;1.95;1.10;;;31.00;42.60;;;;;;6245210;23;20026;-75
2022/05/20 11:39:10;;;;;;;1.92;1.40;;;31.30;41.80;;;;;;6246248;23;20004;-75
2022/05/20 11:41:48;;;;;;;2.45;1.25;;;31.60;39.60;;;;;;6246033;23;20007;-76
2022/05/20 11:44:49;;;;;;;1.80;1.20;;;31.80;40.10;;;;;;6245662;23;20000;-76
2022/05/20 11:47:46;;;;;;;2.70;1.10;;;32.10;40.20;;;;;;6245201;22;20011;-75
2022/05/20 11:50:12;;;;;;;4.40;1.38;;;32.30;38.30;;;;;;6242831;23;20075;-76
2022/05/20 11:52:52;;;;;;;1.70;0.80;;;32.50;37.90;;;;;;6224168;23;21099;-76
2022/05/20 11:55:26;;;;;;;1.15;0.95;;;32.50;38.40;;;;;;6241785;23;20015;-76
2022/05/20 11:58:05;;;;;;;3.08;1.23;;;32.50;38.80;;;;;;6244403;23;20004;-76
2022/05/20 12:00:35;;;;;;;2.80;1.10;;;32.50;37.60;;;;;;6242698;23;20057;-76
2022/05/20 12:03:14;;;;;;;1.50;1.15;;;32.50;38.80;;;;;;6244147;23;20019;-76
2022/05/20 12:05:43;;;;;;;2.13;1.15;;;32.50;37.50;;;;;;6243758;23;20050;-76
2022/05/20 12:08:48;;;;;;;0.95;0.70;;;32.60;37.00;;;;;;6216781;23;20039;-76
2022/05/20 12:11:37;;;;;;;1.27;0.93;;;32.80;35.90;;;;;;6171779;23;20062;-76
2022/05/20 12:14:16;;;;;;;2.45;1.08;;;32.80;36.00;;;;;;6239296;23;20008;-75
2022/05/20 12:16:58;;;;;;;1.13;0.80;;;32.80;35.90;;;;;;6244945;23;19996;-75
2022/05/20 12:25:32;;;;;;;2.05;1.20;;;33.00;35.50;;;;;;6245218;23;20014;-76
2022/05/20 12:28:07;;;;;;;2.08;1.00;;;33.20;35.40;;;;;;6245381;23;20000;-76
2022/05/20 12:30:45;;;;;;;0.80;0.80;;;33.30;35.50;;;;;;6244958;23;20075;-75
2022/05/20 12:33:23;;;;;;;0.80;0.80;;;33.40;34.80;;;;;;6218631;23;20382;-76
2022/05/20 12:36:17;;;;;;;1.00;0.90;;;33.30;33.60;;;;;;6245740;23;20027;-76
2022/05/20 12:38:43;;;;;;;1.85;1.00;;;33.30;33.50;;;;;;6218023;23;20545;-75
2022/05/20 12:41:32;;;;;;;1.85;0.70;;;33.40;35.00;;;;;;6244856;23;20004;-75
2022/05/20 12:44:17;;;;;;;;;;;33.20;34.70;;;;;;6245371;23;20050;-76
2022/05/20 12:47:01;;;;;;;2.22;0.90;;;33.20;36.70;;;;;;6245559;23;19912;-76
2022/05/20 12:49:34;;;;;;;1.15;0.73;;;33.20;35.70;;;;;;6245032;23;20170;-76
2022/05/20 12:52:05;;;;;;;2.20;0.73;;;33.20;34.80;;;;;;6245549;23;20001;-76
2022/05/20 12:54:31;;;;;;;1.05;0.70;;;33.10;36.10;;;;;;6244942;23;20312;-75
2022/05/20 12:57:06;;;;;;;2.08;0.70;;;33.00;36.00;;;;;;6218239;23;20011;-76
2022/05/20 12:59:32;;;;;;;0.55;0.50;;;33.20;36.30;;;;;;6218210;23;20008;-76
2022/05/20 13:02:09;;;;;;;2.97;1.10;;;33.20;36.70;;;;;;6218899;23;20339;-76
2022/05/20 13:04:41;;;;;;;1.02;0.75;;;33.20;37.30;;;;;;6247412;23;20422;-77
2022/05/20 13:07:17;;;;;;;2.88;1.10;;;33.20;36.40;;;;;;6248641;23;20003;-77
2022/05/20 13:09:44;;;;;;;2.05;0.80;;;33.20;36.70;;;;;;6221714;23;20004;-77
2022/05/20 13:12:18;;;;;;;3.30;0.82;;;33.20;37.30;;;;;;6247748;23;20008;-77
2022/05/20 13:15:00;;;;;;;1.05;0.75;;;33.20;37.40;;;;;;6220516;23;20008;-77
2022/05/20 13:17:30;;;;;;;1.27;0.68;;;33.30;37.90;;;;;;6247708;23;20004;-77
2022/05/20 13:19:56;;;;;;;1.52;0.73;;;33.30;37.70;;;;;;6246855;23;20539;-78
2022/05/20 13:22:25;;;;;;;2.88;1.15;;;33.30;37.40;;;;;;6246711;23;20004;-78
2022/05/20 13:25:06;;;;;;;1.40;0.88;;;33.30;37.40;;;;;;6246701;23;20004;-78
2022/05/20 13:27:32;;;;;;;1.75;0.80;;;33.20;37.80;;;;;;6246281;23;20038;-78
2022/05/20 13:30:17;;;;;;;2.55;0.80;;;33.20;37.70;;;;;;6246199;23;20363;-78
2022/05/20 13:32:43;;;;;;;0.95;0.73;;;33.20;38.20;;;;;;6246673;23;20011;-78
2022/05/20 13:35:09;;;;;;;3.17;0.90;;;33.00;38.60;;;;;;6247391;23;20368;-77
2022/05/20 13:37:43;;;;;;;2.50;0.70;;;33.00;38.60;;;;;;6247353;23;20015;-77
2022/05/20 13:40:14;;;;;;;2.58;0.80;;;33.00;37.80;;;;;;6246903;23;20051;-77
2022/05/20 13:42:48;;;;;;;1.17;0.80;;;33.00;36.30;;;;;;6246697;23;20006;-77
2022/05/20 13:45:15;;;;;;;4.05;0.90;;;32.80;36.60;;;;;;6246709;23;20000;-76
2022/05/20 13:50:26;;;;;;;2.70;1.13;;;32.70;37.10;;;;;;6247260;23;20100;-76
2022/05/20 13:52:54;;;;;;;1.42;0.75;;;32.50;37.90;;;;;;6220070;23;20011;-76
2022/05/20 13:55:25;;;;;;;2.17;0.80;;;32.50;38.10;;;;;;6247189;23;20000;-76